Time;durP1;ratioP1;P1;durP2;ratioP2;P2;SDS_P1;SDS_P2;PMS_P1;PMS_P2;Temp;Humidity;BMP_temperature;BMP_pressure;BME280_temperature;BME280_humidity;BME280_pressure;Samples;Min_cycle;Max_cycle;Signal;HPM_P1;HPM_P2
2024/04/06 00:02:14;;;;;;;4.40;2.20;;;;;;;;;;5019725;28;20037;-93
2024/04/06 00:04:41;;;;;;;3.85;2.08;;;;;;;;;;5025419;28;20105;-93
2024/04/06 00:07:07;;;;;;;5.82;2.25;;;;;;;;;;5041634;28;20025;-95
2024/04/06 00:09:33;;;;;;;5.18;2.22;;;;;;;;;;5017036;28;20032;-94
2024/04/06 00:11:58;;;;;;;5.53;2.00;;;;;;;;;;5022333;28;20029;-95
2024/04/06 00:14:24;;;;;;;4.22;1.80;;;;;;;;;;5018256;28;20029;-93
2024/04/06 00:16:50;;;;;;;3.35;1.80;;;;;;;;;;5034813;28;20037;-94
2024/04/06 00:19:15;;;;;;;4.80;1.83;;;;;;;;;;5018131;28;20021;-94
2024/04/06 00:21:40;;;;;;;4.72;1.73;;;;;;;;;;5015987;28;20037;-94
2024/04/06 00:24:06;;;;;;;3.40;1.80;;;;;;;;;;5020444;28;20028;-79
2024/04/06 00:26:31;;;;;;;3.25;1.85;;;;;;;;;;5027195;28;20028;-79
2024/04/06 00:28:57;;;;;;;4.15;1.80;;;;;;;;;;5029810;28;20033;-79
2024/04/06 00:31:22;;;;;;;4.00;2.00;;;;;;;;;;5015974;28;20386;-79
2024/04/06 00:33:47;;;;;;;4.57;2.17;;;;;;;;;;5030493;28;20018;-79
2024/04/06 00:36:13;;;;;;;5.22;2.03;;;;;;;;;;5029977;28;20029;-79
2024/04/06 00:38:38;;;;;;;3.70;2.10;;;;;;;;;;5014973;28;20447;-79
2024/04/06 00:41:04;;;;;;;3.72;1.90;;;;;;;;;;5029807;28;20112;-79
2024/04/06 00:43:31;;;;;;;3.90;1.95;;;;;;;;;;5034097;28;20473;-79
2024/04/06 00:45:56;;;;;;;3.58;2.03;;;;;;;;;;5025685;28;20021;-78
2024/04/06 00:48:22;;;;;;;4.70;2.08;;;;;;;;;;5027913;28;20025;-79
2024/04/06 00:50:48;;;;;;;5.25;2.03;;;;;;;;;;5035973;28;20025;-79
2024/04/06 00:53:13;;;;;;;4.50;2.00;;;;;;;;;;5036929;28;20025;-79
2024/04/06 00:55:39;;;;;;;3.50;1.90;;;;;;;;;;5035561;28;20017;-79
2024/04/06 00:58:05;;;;;;;4.63;2.00;;;;;;;;;;5031944;28;20031;-79
2024/04/06 01:00:30;;;;;;;5.72;2.10;;;;;;;;;;5032128;28;20104;-78
2024/04/06 01:02:55;;;;;;;5.47;2.40;;;;;;;;;;5066153;22;20045;-85
2024/04/06 01:05:21;;;;;;;4.40;1.90;;;;;;;;;;5052816;28;20104;-85
2024/04/06 01:07:48;;;;;;;3.28;1.80;;;;;;;;;;5048451;28;20053;-85
2024/04/06 01:10:13;;;;;;;3.38;1.95;;;;;;;;;;5066683;28;20082;-85
2024/04/06 01:12:39;;;;;;;3.13;1.70;;;;;;;;;;5049617;28;20060;-85
2024/04/06 01:15:05;;;;;;;4.95;2.00;;;;;;;;;;5071953;28;20035;-84
2024/04/06 01:17:30;;;;;;;3.60;2.03;;;;;;;;;;5051016;28;20021;-85
2024/04/06 01:19:55;;;;;;;4.15;1.80;;;;;;;;;;5051351;28;20509;-85
2024/04/06 01:22:21;;;;;;;3.28;1.70;;;;;;;;;;5067783;28;20474;-85
2024/04/06 01:24:46;;;;;;;3.78;1.98;;;;;;;;;;5052599;28;20530;-85
2024/04/06 01:27:12;;;;;;;5.88;1.98;;;;;;;;;;5051699;28;20536;-85
2024/04/06 01:29:37;;;;;;;4.22;2.10;;;;;;;;;;5063247;28;20028;-85
2024/04/06 01:32:03;;;;;;;4.35;1.80;;;;;;;;;;5057509;28;20024;-85
2024/04/06 01:34:28;;;;;;;4.22;2.03;;;;;;;;;;5057751;28;20056;-85
2024/04/06 01:36:54;;;;;;;3.47;1.70;;;;;;;;;;5070809;28;20079;-85
2024/04/06 01:39:19;;;;;;;3.00;1.77;;;;;;;;;;5054420;28;20035;-84
2024/04/06 01:41:46;;;;;;;4.40;1.90;;;;;;;;;;5056286;28;20036;-84
2024/04/06 01:44:12;;;;;;;4.13;2.28;;;;;;;;;;5049359;28;20466;-84
2024/04/06 01:46:37;;;;;;;3.85;1.73;;;;;;;;;;5055061;28;20040;-86
2024/04/06 01:49:03;;;;;;;4.38;1.92;;;;;;;;;;5068309;28;20027;-84
2024/04/06 01:51:28;;;;;;;2.50;1.60;;;;;;;;;;5062599;28;20024;-85
2024/04/06 01:53:54;;;;;;;4.30;1.80;;;;;;;;;;5062167;28;20037;-86
2024/04/06 01:56:19;;;;;;;3.35;1.77;;;;;;;;;;5068464;28;20043;-85
2024/04/06 01:58:46;;;;;;;4.13;2.00;;;;;;;;;;5064480;28;20036;-84
2024/04/06 02:01:12;;;;;;;4.22;2.00;;;;;;;;;;5032117;28;20035;-85
2024/04/06 02:03:38;;;;;;;4.68;2.08;;;;;;;;;;5056778;28;20052;-85
2024/04/06 02:06:04;;;;;;;3.70;1.80;;;;;;;;;;5057752;28;20486;-85
2024/04/06 02:08:30;;;;;;;5.70;2.20;;;;;;;;;;5045232;28;20071;-85
2024/04/06 02:10:55;;;;;;;3.85;2.00;;;;;;;;;;5052123;28;20060;-85
2024/04/06 02:13:21;;;;;;;4.22;2.00;;;;;;;;;;5053880;28;20029;-83
2024/04/06 02:15:46;;;;;;;3.97;1.98;;;;;;;;;;5068753;28;20045;-81
2024/04/06 02:18:12;;;;;;;5.07;2.20;;;;;;;;;;5066231;28;20020;-81
2024/04/06 02:20:39;;;;;;;4.70;2.10;;;;;;;;;;5068870;28;20028;-81
2024/04/06 02:23:04;;;;;;;4.68;2.20;;;;;;;;;;5053046;28;20482;-81
2024/04/06 02:25:31;;;;;;;5.03;2.17;;;;;;;;;;5053648;28;20074;-81
2024/04/06 02:27:56;;;;;;;4.75;2.30;;;;;;;;;;5069457;28;20025;-81
2024/04/06 02:30:22;;;;;;;3.92;2.17;;;;;;;;;;5048537;28;20028;-81
2024/04/06 02:32:48;;;;;;;4.22;2.38;;;;;;;;;;5063708;28;20040;-81
2024/04/06 02:35:14;;;;;;;4.38;2.20;;;;;;;;;;5051903;28;20028;-81
2024/04/06 02:37:40;;;;;;;4.25;2.20;;;;;;;;;;5051459;28;20017;-81
2024/04/06 02:40:06;;;;;;;5.30;2.33;;;;;;;;;;5067649;28;20024;-81
2024/04/06 02:42:31;;;;;;;4.22;2.40;;;;;;;;;;5058137;28;20115;-81
2024/04/06 02:44:57;;;;;;;5.88;2.45;;;;;;;;;;5068207;28;20107;-81
2024/04/06 02:47:22;;;;;;;5.93;2.00;;;;;;;;;;5068731;28;20021;-81
2024/04/06 02:49:48;;;;;;;4.88;2.90;;;;;;;;;;5050735;28;20123;-81
2024/04/06 02:52:13;;;;;;;4.60;2.33;;;;;;;;;;5070469;28;20024;-81
2024/04/06 02:54:39;;;;;;;5.60;2.30;;;;;;;;;;5057207;28;20097;-81
2024/04/06 02:57:05;;;;;;;4.75;2.20;;;;;;;;;;5070105;28;20505;-81
2024/04/06 02:59:30;;;;;;;3.83;2.00;;;;;;;;;;5053543;28;20024;-81
2024/04/06 03:01:57;;;;;;;3.20;2.08;;;;;;;;;;5051849;28;20266;-82
2024/04/06 03:04:23;;;;;;;4.55;2.10;;;;;;;;;;5047773;28;20020;-81
2024/04/06 03:06:49;;;;;;;3.35;1.70;;;;;;;;;;5057803;28;20028;-81
2024/04/06 03:09:14;;;;;;;3.28;2.00;;;;;;;;;;5072778;28;20034;-81
2024/04/06 03:11:42;;;;;;;4.05;2.28;;;;;;;;;;5055256;28;20027;-81
2024/04/06 03:14:08;;;;;;;5.35;2.30;;;;;;;;;;5055657;28;20045;-81
2024/04/06 03:16:33;;;;;;;3.30;2.00;;;;;;;;;;5054780;28;20465;-81
2024/04/06 03:18:58;;;;;;;3.45;1.90;;;;;;;;;;5069471;28;20036;-81
2024/04/06 03:21:24;;;;;;;4.72;1.90;;;;;;;;;;5051507;28;20036;-81
2024/04/06 03:23:49;;;;;;;3.80;2.17;;;;;;;;;;5052074;28;20032;-82
2024/04/06 03:26:15;;;;;;;4.43;2.20;;;;;;;;;;5071728;28;20039;-80
2024/04/06 03:28:40;;;;;;;7.28;2.25;;;;;;;;;;5052966;28;20089;-81
2024/04/06 03:31:06;;;;;;;3.28;2.00;;;;;;;;;;5057789;28;20024;-81
2024/04/06 03:33:31;;;;;;;3.67;1.65;;;;;;;;;;5066416;28;20036;-82
2024/04/06 03:35:56;;;;;;;5.03;2.13;;;;;;;;;;5051417;28;20424;-81
2024/04/06 03:38:22;;;;;;;5.30;2.10;;;;;;;;;;5071508;28;20032;-81
2024/04/06 03:40:47;;;;;;;3.03;1.80;;;;;;;;;;5053217;28;20165;-81
2024/04/06 03:43:12;;;;;;;4.35;2.05;;;;;;;;;;5067144;28;20024;-81
2024/04/06 03:45:38;;;;;;;4.22;2.10;;;;;;;;;;5071860;28;20020;-81
2024/04/06 03:48:04;;;;;;;6.65;2.10;;;;;;;;;;5071989;28;20024;-81
2024/04/06 03:50:30;;;;;;;3.72;2.33;;;;;;;;;;5047939;28;20060;-81
2024/04/06 03:52:55;;;;;;;3.67;1.98;;;;;;;;;;5048852;28;20470;-81
2024/04/06 03:55:20;;;;;;;3.97;2.03;;;;;;;;;;5072303;28;20036;-81
2024/04/06 03:57:47;;;;;;;3.75;2.20;;;;;;;;;;5072414;28;20444;-81
2024/04/06 04:00:15;;;;;;;3.55;2.20;;;;;;;;;;5063566;28;20478;-81
2024/04/06 04:02:41;;;;;;;4.40;2.25;;;;;;;;;;5053524;28;20686;-81
2024/04/06 04:05:08;;;;;;;4.68;1.77;;;;;;;;;;5051625;28;20020;-81
2024/04/06 04:07:35;;;;;;;4.78;1.88;;;;;;;;;;5053298;28;20056;-81
2024/04/06 04:10:01;;;;;;;4.30;2.15;;;;;;;;;;5048788;28;20466;-81
2024/04/06 04:12:28;;;;;;;5.85;2.10;;;;;;;;;;5057841;28;20036;-81
2024/04/06 04:14:53;;;;;;;4.80;2.15;;;;;;;;;;5049958;28;20035;-81
2024/04/06 04:17:19;;;;;;;3.88;2.10;;;;;;;;;;5047676;28;20454;-81
2024/04/06 04:19:44;;;;;;;5.35;2.20;;;;;;;;;;5048905;28;20025;-81
2024/04/06 04:22:09;;;;;;;3.75;2.22;;;;;;;;;;5054611;28;20502;-84
2024/04/06 04:24:35;;;;;;;5.50;2.28;;;;;;;;;;5052919;28;20017;-81
2024/04/06 04:27:00;;;;;;;4.38;2.30;;;;;;;;;;5046776;28;20024;-81
2024/04/06 04:29:26;;;;;;;4.45;2.60;;;;;;;;;;5050778;28;20020;-81
2024/04/06 04:31:51;;;;;;;7.60;3.00;;;;;;;;;;5056653;28;20032;-81
2024/04/06 04:34:16;;;;;;;5.32;2.42;;;;;;;;;;5052932;28;20024;-85
2024/04/06 04:36:42;;;;;;;7.03;2.70;;;;;;;;;;5054207;28;20478;-85
2024/04/06 04:39:07;;;;;;;3.90;2.50;;;;;;;;;;5050427;28;20032;-85
2024/04/06 04:41:33;;;;;;;6.88;2.72;;;;;;;;;;5055869;28;20029;-85
2024/04/06 04:43:58;;;;;;;5.70;2.65;;;;;;;;;;5051948;28;20025;-85
2024/04/06 04:46:23;;;;;;;5.85;2.70;;;;;;;;;;5067938;28;20099;-85
2024/04/06 04:48:53;;;;;;;4.03;2.60;;;;;;;;;;5056158;28;20032;-85
2024/04/06 04:51:20;;;;;;;5.75;3.38;;;;;;;;;;5049047;28;20016;-85
2024/04/06 04:53:45;;;;;;;5.45;3.10;;;;;;;;;;5070091;28;20044;-84
2024/04/06 04:56:11;;;;;;;8.10;3.90;;;;;;;;;;5069233;28;20028;-84
2024/04/06 04:58:36;;;;;;;5.80;3.80;;;;;;;;;;5043961;28;20020;-85
2024/04/06 05:01:01;;;;;;;6.53;3.83;;;;;;;;;;5063270;28;20031;-85
2024/04/06 05:03:27;;;;;;;7.75;4.30;;;;;;;;;;5066605;28;20029;-84
2024/04/06 05:05:53;;;;;;;9.18;4.20;;;;;;;;;;5049548;28;20028;-85
2024/04/06 05:08:18;;;;;;;6.25;4.03;;;;;;;;;;5067221;28;20441;-85
2024/04/06 05:10:44;;;;;;;7.20;4.00;;;;;;;;;;5068449;28;20020;-85
2024/04/06 05:13:09;;;;;;;5.82;3.55;;;;;;;;;;5049486;28;20029;-85
2024/04/06 05:15:35;;;;;;;7.00;3.53;;;;;;;;;;5056080;28;20127;-84
2024/04/06 05:18:00;;;;;;;6.68;3.60;;;;;;;;;;5047478;28;20040;-85
2024/04/06 05:20:25;;;;;;;5.75;3.30;;;;;;;;;;5050284;28;20029;-85
2024/04/06 05:22:51;;;;;;;8.07;3.47;;;;;;;;;;5052712;28;20040;-85
2024/04/06 05:25:16;;;;;;;10.45;3.67;;;;;;;;;;5048296;28;20360;-85
2024/04/06 05:27:41;;;;;;;6.13;3.10;;;;;;;;;;5051204;28;20502;-85
2024/04/06 05:30:08;;;;;;;4.20;2.90;;;;;;;;;;5068340;28;20066;-85
2024/04/06 05:32:33;;;;;;;6.03;3.05;;;;;;;;;;5067081;28;20471;-85
2024/04/06 05:34:59;;;;;;;6.07;3.00;;;;;;;;;;5065311;28;20033;-84
2024/04/06 05:37:24;;;;;;;7.20;2.97;;;;;;;;;;5052603;28;20191;-85
2024/04/06 05:39:50;;;;;;;4.72;2.70;;;;;;;;;;5057676;28;20501;-83
2024/04/06 05:42:15;;;;;;;4.97;2.80;;;;;;;;;;5050123;28;20028;-85
2024/04/06 05:44:40;;;;;;;5.68;2.63;;;;;;;;;;5070246;28;20031;-81
2024/04/06 05:47:06;;;;;;;5.40;3.08;;;;;;;;;;5067880;28;20032;-81
2024/04/06 05:49:31;;;;;;;5.28;2.55;;;;;;;;;;5068901;28;20390;-81
2024/04/06 05:51:57;;;;;;;6.63;2.83;;;;;;;;;;5051655;28;20089;-81
2024/04/06 05:54:22;;;;;;;7.38;2.80;;;;;;;;;;5052234;28;20402;-81
2024/04/06 05:56:48;;;;;;;4.85;2.78;;;;;;;;;;5071437;28;20099;-81
2024/04/06 05:59:13;;;;;;;5.40;2.70;;;;;;;;;;5070295;28;20039;-81
2024/04/06 06:01:38;;;;;;;6.53;3.25;;;;;;;;;;5064066;28;20074;-81
2024/04/06 06:04:04;;;;;;;5.10;2.83;;;;;;;;;;5048322;28;20450;-81
2024/04/06 06:06:30;;;;;;;4.60;2.67;;;;;;;;;;5049721;28;20091;-81
2024/04/06 06:08:55;;;;;;;6.70;2.75;;;;;;;;;;5046206;28;20368;-81
2024/04/06 06:11:20;;;;;;;5.18;2.38;;;;;;;;;;5060174;28;20513;-81
2024/04/06 06:13:46;;;;;;;6.53;3.00;;;;;;;;;;5060776;28;20048;-81
2024/04/06 06:16:11;;;;;;;5.47;2.22;;;;;;;;;;5050093;28;20120;-81
2024/04/06 06:18:37;;;;;;;5.00;2.20;;;;;;;;;;5066756;28;20028;-81
2024/04/06 06:21:06;;;;;;;3.55;2.40;;;;;;;;;;5049943;28;20036;-82
2024/04/06 06:23:31;;;;;;;5.80;2.60;;;;;;;;;;5066404;28;20030;-82
2024/04/06 06:25:57;;;;;;;4.97;2.60;;;;;;;;;;5067868;28;20109;-82
2024/04/06 06:28:22;;;;;;;4.22;2.20;;;;;;;;;;5052747;28;20079;-81
2024/04/06 06:30:48;;;;;;;7.20;2.38;;;;;;;;;;5051252;28;20036;-82
2024/04/06 06:33:13;;;;;;;4.25;2.40;;;;;;;;;;5051858;28;20815;-82
2024/04/06 06:35:38;;;;;;;3.97;2.42;;;;;;;;;;5049135;28;20039;-82
2024/04/06 06:38:04;;;;;;;4.72;2.53;;;;;;;;;;5049676;28;20471;-82
2024/04/06 06:40:30;;;;;;;5.82;2.65;;;;;;;;;;5066479;28;20482;-82
2024/04/06 06:42:55;;;;;;;4.45;2.40;;;;;;;;;;5048311;28;20031;-82
2024/04/06 06:45:21;;;;;;;5.45;2.40;;;;;;;;;;5065671;28;20089;-81
2024/04/06 06:47:46;;;;;;;4.97;2.70;;;;;;;;;;5048511;28;20029;-82
2024/04/06 06:50:13;;;;;;;5.55;2.60;;;;;;;;;;5047126;28;20054;-82
2024/04/06 06:52:39;;;;;;;5.00;2.50;;;;;;;;;;5057219;28;20040;-82
2024/04/06 06:55:04;;;;;;;5.10;2.65;;;;;;;;;;5042589;28;20025;-83
2024/04/06 06:57:30;;;;;;;5.10;2.80;;;;;;;;;;5045697;28;20031;-82
2024/04/06 06:59:56;;;;;;;3.92;2.50;;;;;;;;;;5045257;28;20501;-82
2024/04/06 07:02:21;;;;;;;5.82;2.90;;;;;;;;;;5045805;28;20044;-82
2024/04/06 07:04:47;;;;;;;4.43;2.70;;;;;;;;;;5028138;28;20020;-82
2024/04/06 07:07:13;;;;;;;4.25;2.78;;;;;;;;;;5057850;28;20680;-82
2024/04/06 07:09:38;;;;;;;5.50;2.75;;;;;;;;;;5053109;28;20094;-82
2024/04/06 07:12:04;;;;;;;5.28;3.05;;;;;;;;;;5049948;28;20025;-82
2024/04/06 07:14:29;;;;;;;4.80;2.80;;;;;;;;;;5052292;28;20497;-82
2024/04/06 07:16:55;;;;;;;7.30;3.03;;;;;;;;;;5051367;28;20025;-82
2024/04/06 07:19:20;;;;;;;4.78;3.10;;;;;;;;;;5072906;28;20039;-82
2024/04/06 07:21:45;;;;;;;5.45;3.15;;;;;;;;;;5071475;28;20085;-82
2024/04/06 07:24:11;;;;;;;4.40;2.70;;;;;;;;;;5068761;28;20474;-82
2024/04/06 07:26:36;;;;;;;4.25;2.70;;;;;;;;;;5050473;28;20069;-82
2024/04/06 07:29:01;;;;;;;6.35;2.97;;;;;;;;;;5049897;28;20027;-81
2024/04/06 07:31:27;;;;;;;4.60;2.50;;;;;;;;;;5046284;28;20497;-82
2024/04/06 07:33:52;;;;;;;4.60;2.47;;;;;;;;;;5066218;28;20031;-82
2024/04/06 07:36:18;;;;;;;5.25;2.72;;;;;;;;;;5066099;28;20041;-83
2024/04/06 07:38:44;;;;;;;4.75;2.50;;;;;;;;;;5066989;28;20052;-82
2024/04/06 07:41:09;;;;;;;7.03;2.72;;;;;;;;;;5050909;28;20039;-82
2024/04/06 07:43:35;;;;;;;6.03;2.70;;;;;;;;;;5051512;28;20031;-81
2024/04/06 07:46:01;;;;;;;3.97;2.40;;;;;;;;;;5064311;28;20028;-81
2024/04/06 07:48:26;;;;;;;5.72;2.55;;;;;;;;;;5048473;28;21586;-81
2024/04/06 07:50:52;;;;;;;7.05;2.63;;;;;;;;;;5044999;28;20394;-82
2024/04/06 07:53:18;;;;;;;4.85;2.45;;;;;;;;;;5060845;28;21412;-82
2024/04/06 07:55:44;;;;;;;4.85;2.35;;;;;;;;;;5064810;28;20020;-81
2024/04/06 07:58:10;;;;;;;5.10;2.38;;;;;;;;;;5051496;28;20026;-81
2024/04/06 08:00:36;;;;;;;3.85;2.00;;;;;;;;;;5067172;28;20112;-82
2024/04/06 08:03:03;;;;;;;7.28;2.25;;;;;;;;;;5051792;28;20074;-81
2024/04/06 08:05:29;;;;;;;3.65;2.00;;;;;;;;;;5051645;28;20059;-81
2024/04/06 08:07:54;;;;;;;5.70;2.60;;;;;;;;;;5045833;28;20060;-82
2024/04/06 08:10:21;;;;;;;4.00;2.58;;;;;;;;;;5050235;28;20032;-81
2024/04/06 08:12:47;;;;;;;4.93;2.17;;;;;;;;;;5065507;28;20036;-82
2024/04/06 08:15:13;;;;;;;5.15;2.05;;;;;;;;;;5050174;28;20031;-82
2024/04/06 08:17:45;;;;;;;5.82;2.08;;;;;;;;;;5045507;28;20029;-82
2024/04/06 08:20:10;;;;;;;4.57;2.28;;;;;;;;;;5050541;28;20103;-82
2024/04/06 08:22:36;;;;;;;5.35;2.17;;;;;;;;;;5067542;28;20028;-81
2024/04/06 08:25:05;;;;;;;2.85;1.85;;;;;;;;;;5063264;28;20021;-83
2024/04/06 08:27:31;;;;;;;4.90;2.05;;;;;;;;;;5052143;28;20478;-82
2024/04/06 08:29:56;;;;;;;3.83;1.90;;;;;;;;;;5057486;28;20430;-81
2024/04/06 08:32:22;;;;;;;4.50;1.85;;;;;;;;;;5064435;28;20048;-82
2024/04/06 08:34:53;;;;;;;6.05;1.98;;;;;;;;;;5054033;28;20115;-82
2024/04/06 08:37:19;;;;;;;4.10;1.90;;;;;;;;;;5044176;28;20037;-82
2024/04/06 08:39:44;;;;;;;3.88;1.90;;;;;;;;;;5065775;28;20063;-81
2024/04/06 08:42:14;;;;;;;2.85;1.67;;;;;;;;;;5059289;28;20025;-81
2024/04/06 08:44:43;;;;;;;4.53;1.83;;;;;;;;;;5069481;28;20562;-82
2024/04/06 08:47:16;;;;;;;4.00;2.03;;;;;;;;;;5036279;28;20039;-82
2024/04/06 08:49:42;;;;;;;2.92;1.80;;;;;;;;;;5035918;28;20035;-81
2024/04/06 08:52:11;;;;;;;4.95;1.90;;;;;;;;;;5062852;28;20032;-82
2024/04/06 08:54:38;;;;;;;3.67;2.00;;;;;;;;;;5043790;28;20032;-84
2024/04/06 08:57:04;;;;;;;5.07;1.75;;;;;;;;;;5040309;28;20078;-82
2024/04/06 08:59:30;;;;;;;5.43;1.88;;;;;;;;;;5039165;28;20115;-82
2024/04/06 09:01:55;;;;;;;6.82;2.00;;;;;;;;;;5046158;28;20032;-82
2024/04/06 09:04:21;;;;;;;4.88;1.83;;;;;;;;;;5062102;28;20020;-82
2024/04/06 09:06:47;;;;;;;7.53;2.00;;;;;;;;;;5045474;28;20107;-82
2024/04/06 09:09:13;;;;;;;3.53;1.85;;;;;;;;;;5045643;28;20052;-83
2024/04/06 09:11:39;;;;;;;4.43;1.90;;;;;;;;;;5046049;28;20833;-83
2024/04/06 09:14:06;;;;;;;5.03;2.03;;;;;;;;;;5061171;28;20060;-83
2024/04/06 09:16:32;;;;;;;5.60;2.13;;;;;;;;;;5063694;28;20025;-87
2024/04/06 09:18:58;;;;;;;4.38;1.98;;;;;;;;;;5059939;28;20032;-86
2024/04/06 09:21:23;;;;;;;4.45;2.00;;;;;;;;;;5064331;28;20379;-86
2024/04/06 09:23:53;;;;;;;4.07;1.92;;;;;;;;;;5063565;28;20067;-87
2024/04/06 09:26:22;;;;;;;4.07;1.92;;;;;;;;;;5064434;28;20111;-85
2024/04/06 09:28:50;;;;;;;2.75;1.55;;;;;;;;;;5037789;28;20024;-84
2024/04/06 09:31:19;;;;;;;6.07;2.15;;;;;;;;;;5059824;28;20032;-83
2024/04/06 09:33:52;;;;;;;5.72;1.98;;;;;;;;;;5040788;28;20039;-85
2024/04/06 09:36:19;;;;;;;3.85;1.70;;;;;;;;;;5014300;28;20486;-84
2024/04/06 09:38:47;;;;;;;3.80;1.90;;;;;;;;;;5033542;28;20036;-84
2024/04/06 09:41:16;;;;;;;4.85;1.58;;;;;;;;;;5055983;28;20136;-85
2024/04/06 09:43:43;;;;;;;2.83;1.95;;;;;;;;;;5053700;28;20117;-83
2024/04/06 09:46:10;;;;;;;4.50;1.90;;;;;;;;;;5045312;28;20036;-84
2024/04/06 09:48:37;;;;;;;3.60;1.60;;;;;;;;;;5052801;28;20025;-83
2024/04/06 09:51:03;;;;;;;3.83;1.67;;;;;;;;;;5041385;28;20116;-85
2024/04/06 09:53:29;;;;;;;3.35;1.67;;;;;;;;;;5060158;28;20388;-85
2024/04/06 09:55:55;;;;;;;4.32;1.92;;;;;;;;;;5056746;28;20085;-84
2024/04/06 09:58:28;;;;;;;5.20;2.03;;;;;;;;;;5037055;28;20041;-85
2024/04/06 10:00:55;;;;;;;3.45;1.58;;;;;;;;;;5058909;28;20108;-84
2024/04/06 10:03:22;;;;;;;3.92;1.60;;;;;;;;;;5062243;28;20021;-84
2024/04/06 10:05:49;;;;;;;3.60;1.80;;;;;;;;;;5054079;28;20051;-84
2024/04/06 10:08:17;;;;;;;3.65;1.55;;;;;;;;;;5064363;28;20080;-84
2024/04/06 10:10:48;;;;;;;3.40;1.67;;;;;;;;;;5060761;28;20039;-84
2024/04/06 10:13:23;;;;;;;8.15;2.35;;;;;;;;;;5043561;28;20047;-84
2024/04/06 10:15:50;;;;;;;3.75;1.50;;;;;;;;;;5038750;28;20081;-84
2024/04/06 10:18:16;;;;;;;4.75;1.67;;;;;;;;;;5041590;28;20278;-83
2024/04/06 10:20:43;;;;;;;8.98;2.38;;;;;;;;;;5064289;28;20503;-84
2024/04/06 10:23:13;;;;;;;4.22;1.63;;;;;;;;;;5060292;28;20028;-84
2024/04/06 10:25:39;;;;;;;2.95;1.60;;;;;;;;;;5035995;28;20120;-84
2024/04/06 10:28:08;;;;;;;3.00;1.40;;;;;;;;;;5043061;28;20051;-84
2024/04/06 10:30:37;;;;;;;4.55;1.80;;;;;;;;;;5044773;28;20032;-84
2024/04/06 10:33:02;;;;;;;3.78;1.52;;;;;;;;;;5047996;28;20317;-85
2024/04/06 10:35:28;;;;;;;2.45;1.48;;;;;;;;;;5039570;28;20730;-84
2024/04/06 10:37:54;;;;;;;3.47;1.52;;;;;;;;;;5045598;28;20088;-84
2024/04/06 10:40:27;;;;;;;5.22;1.52;;;;;;;;;;5043111;28;20146;-84
2024/04/06 10:42:53;;;;;;;3.45;1.40;;;;;;;;;;5041839;28;20126;-84
2024/04/06 10:45:19;;;;;;;5.47;1.45;;;;;;;;;;5042292;28;20102;-84
2024/04/06 10:47:45;;;;;;;3.63;1.35;;;;;;;;;;5038629;28;20115;-84
2024/04/06 10:50:11;;;;;;;3.97;1.60;;;;;;;;;;5041380;28;20082;-85
2024/04/06 10:52:37;;;;;;;5.32;1.55;;;;;;;;;;5044069;28;20025;-85
2024/04/06 10:55:10;;;;;;;4.82;1.50;;;;;;;;;;5061817;28;20028;-83
2024/04/06 10:57:39;;;;;;;3.60;1.20;;;;;;;;;;5040709;28;20025;-84
2024/04/06 11:00:26;;;;;;;2.80;1.20;;;;;;;;;;5042284;28;20020;-84
2024/04/06 11:02:51;;;;;;;3.47;1.55;;;;;;;;;;5058613;28;20033;-85
2024/04/06 11:05:17;;;;;;;4.03;1.33;;;;;;;;;;5037686;28;20393;-84
2024/04/06 11:07:43;;;;;;;3.65;1.38;;;;;;;;;;5031242;28;20028;-84
2024/04/06 11:10:09;;;;;;;2.67;1.17;;;;;;;;;;5032279;28;20040;-84
2024/04/06 11:12:39;;;;;;;3.03;1.33;;;;;;;;;;5034587;28;20032;-84
2024/04/06 11:15:07;;;;;;;4.28;1.33;;;;;;;;;;5040001;28;20029;-84
2024/04/06 11:17:32;;;;;;;3.90;1.30;;;;;;;;;;5026012;28;20020;-84
2024/04/06 11:20:03;;;;;;;3.92;1.42;;;;;;;;;;5029240;28;20028;-84
2024/04/06 11:22:28;;;;;;;3.05;1.10;;;;;;;;;;5030971;28;20024;-85
2024/04/06 11:24:55;;;;;;;4.03;1.48;;;;;;;;;;5057206;28;20451;-84
2024/04/06 11:27:25;;;;;;;5.68;1.55;;;;;;;;;;5033733;28;20055;-84
2024/04/06 11:29:51;;;;;;;3.60;1.40;;;;;;;;;;5050705;28;20283;-84
2024/04/06 11:32:23;;;;;;;4.05;1.23;;;;;;;;;;5046185;28;20032;-84
2024/04/06 11:34:50;;;;;;;3.47;1.20;;;;;;;;;;5055335;28;20071;-81
2024/04/06 11:37:17;;;;;;;2.42;1.00;;;;;;;;;;5057779;28;20043;-80
2024/04/06 11:39:44;;;;;;;4.63;1.33;;;;;;;;;;5028880;28;20040;-80
2024/04/06 11:42:09;;;;;;;4.32;1.20;;;;;;;;;;5033235;28;20098;-80
2024/04/06 11:44:35;;;;;;;4.22;1.20;;;;;;;;;;5050884;28;20036;-80
2024/04/06 11:47:01;;;;;;;2.13;1.10;;;;;;;;;;5056986;28;20025;-80
2024/04/06 11:49:26;;;;;;;3.38;1.20;;;;;;;;;;5049238;28;20032;-81
2024/04/06 11:51:52;;;;;;;3.45;1.20;;;;;;;;;;5044937;28;20035;-80
2024/04/06 11:54:17;;;;;;;5.68;1.30;;;;;;;;;;5050438;28;20109;-81
2024/04/06 11:56:43;;;;;;;1.83;0.90;;;;;;;;;;5055677;28;20021;-81
2024/04/06 11:59:09;;;;;;;2.90;1.10;;;;;;;;;;5033940;28;20029;-82
2024/04/06 12:01:36;;;;;;;4.72;1.50;;;;;;;;;;5033332;28;20410;-81
2024/04/06 12:04:01;;;;;;;3.30;1.17;;;;;;;;;;5054453;28;20029;-81
2024/04/06 12:06:27;;;;;;;3.83;1.10;;;;;;;;;;5030803;28;20440;-81
2024/04/06 12:08:52;;;;;;;2.58;1.20;;;;;;;;;;5032543;28;20032;-81
2024/04/06 12:11:18;;;;;;;3.72;1.20;;;;;;;;;;5044734;28;20531;-81
2024/04/06 12:13:46;;;;;;;3.13;1.20;;;;;;;;;;5030759;28;20775;-81
2024/04/06 12:16:12;;;;;;;3.42;0.90;;;;;;;;;;5047709;28;20509;-81
2024/04/06 12:18:37;;;;;;;3.63;1.10;;;;;;;;;;5049989;28;20025;-81
2024/04/06 12:21:03;;;;;;;3.70;1.10;;;;;;;;;;5030278;28;20032;-81
2024/04/06 12:23:28;;;;;;;3.25;1.08;;;;;;;;;;5031684;28;20135;-81
2024/04/06 12:25:57;;;;;;;3.70;1.10;;;;;;;;;;5034769;28;20033;-81
2024/04/06 12:28:23;;;;;;;2.70;1.10;;;;;;;;;;5044819;28;20542;-82
2024/04/06 12:30:48;;;;;;;2.58;1.00;;;;;;;;;;5030300;28;20037;-81
2024/04/06 12:33:13;;;;;;;8.52;1.40;;;;;;;;;;5034878;28;20034;-81
2024/04/06 12:35:42;;;;;;;3.47;1.15;;;;;;;;;;5034314;28;20024;-81
2024/04/06 12:38:08;;;;;;;2.22;1.10;;;;;;;;;;5041053;28;20028;-81
2024/04/06 12:40:33;;;;;;;3.90;1.10;;;;;;;;;;5030902;28;20502;-81
2024/04/06 12:42:59;;;;;;;2.40;1.05;;;;;;;;;;5026132;28;20397;-82
2024/04/06 12:45:24;;;;;;;2.17;1.08;;;;;;;;;;5031462;28;20434;-91
2024/04/06 12:47:50;;;;;;;4.20;1.00;;;;;;;;;;5032984;28;20546;-90
2024/04/06 12:50:15;;;;;;;2.47;1.17;;;;;;;;;;5026373;28;20518;-89
2024/04/06 12:52:41;;;;;;;2.55;0.93;;;;;;;;;;5035069;28;20029;-92
2024/04/06 12:55:06;;;;;;;2.75;0.80;;;;;;;;;;5026729;28;20053;-92
2024/04/06 12:57:41;;;;;;;3.58;1.10;;;;;;;;;;5042776;28;20025;-93
2024/04/06 13:00:09;;;;;;;3.33;0.98;;;;;;;;;;5040456;28;21967;-91
2024/04/06 13:02:35;;;;;;;3.60;1.50;;;;;;;;;;5040092;28;20405;-92
2024/04/06 13:05:00;;;;;;;2.50;1.25;;;;;;;;;;5060260;28;20045;-94
2024/04/06 13:07:27;;;;;;;4.35;1.10;;;;;;;;;;5047761;28;20040;-95
2024/04/06 13:09:55;;;;;;;5.07;1.10;;;;;;;;;;5038902;28;20125;-93
2024/04/06 13:12:30;;;;;;;2.25;1.05;;;;;;;;;;5034182;28;20134;-92
2024/04/06 13:14:58;;;;;;;2.03;0.90;;;;;;;;;;5044715;28;20029;-92
2024/04/06 13:17:24;;;;;;;1.98;0.77;;;;;;;;;;5034236;28;20032;-92
2024/04/06 13:19:56;;;;;;;4.47;1.00;;;;;;;;;;5034879;28;20048;-84
2024/04/06 13:22:22;;;;;;;3.80;1.08;;;;;;;;;;5049122;28;20028;-84
2024/04/06 13:24:51;;;;;;;2.50;1.00;;;;;;;;;;5050883;28;20025;-84
2024/04/06 13:27:19;;;;;;;2.83;0.80;;;;;;;;;;5054198;28;20036;-83
2024/04/06 13:29:45;;;;;;;2.78;0.82;;;;;;;;;;5051261;28;20082;-84
2024/04/06 13:32:10;;;;;;;1.77;0.90;;;;;;;;;;5033880;28;20032;-85
2024/04/06 13:34:36;;;;;;;2.78;1.00;;;;;;;;;;5040997;28;20510;-84
2024/04/06 13:37:02;;;;;;;2.42;0.82;;;;;;;;;;5053847;28;20106;-84
2024/04/06 13:39:27;;;;;;;3.17;0.90;;;;;;;;;;5033826;28;20680;-84
2024/04/06 13:41:53;;;;;;;2.90;0.98;;;;;;;;;;5050337;28;20654;-84
2024/04/06 13:44:18;;;;;;;6.88;0.95;;;;;;;;;;5052785;28;20032;-85
2024/04/06 13:46:44;;;;;;;5.50;0.82;;;;;;;;;;5055871;28;20025;-85
2024/04/06 13:49:09;;;;;;;5.70;1.17;;;;;;;;;;5038482;28;20036;-85
2024/04/06 13:51:39;;;;;;;3.10;0.93;;;;;;;;;;5057826;28;20478;-85
2024/04/06 13:54:07;;;;;;;3.65;0.70;;;;;;;;;;5043536;28;20040;-86
2024/04/06 13:56:38;;;;;;;2.22;0.82;;;;;;;;;;5030249;28;20041;-81
2024/04/06 13:59:04;;;;;;;4.32;0.80;;;;;;;;;;5045356;28;20044;-81
2024/04/06 14:01:32;;;;;;;4.75;0.90;;;;;;;;;;5028851;28;20221;-82
2024/04/06 14:03:58;;;;;;;3.95;1.02;;;;;;;;;;5031718;28;20048;-81
2024/04/06 14:06:23;;;;;;;2.63;1.00;;;;;;;;;;5056911;28;20329;-81
2024/04/06 14:08:48;;;;;;;5.47;0.90;;;;;;;;;;5032116;28;20032;-81
2024/04/06 14:11:14;;;;;;;5.28;1.10;;;;;;;;;;5054564;28;20644;-81
2024/04/06 14:13:44;;;;;;;2.63;0.90;;;;;;;;;;5059611;28;20044;-81
2024/04/06 14:16:10;;;;;;;2.78;1.10;;;;;;;;;;5027061;28;20035;-81
2024/04/06 14:18:36;;;;;;;5.43;1.00;;;;;;;;;;5038323;28;20025;-82
2024/04/06 14:21:02;;;;;;;2.88;1.00;;;;;;;;;;5050804;28;20803;-82
2024/04/06 14:23:28;;;;;;;5.05;0.98;;;;;;;;;;5048221;28;20024;-82
2024/04/06 14:25:53;;;;;;;2.65;0.80;;;;;;;;;;5039082;28;20155;-82
2024/04/06 14:28:19;;;;;;;4.75;1.20;;;;;;;;;;5035074;28;20033;-82
2024/04/06 14:30:44;;;;;;;3.20;1.45;;;;;;;;;;5043294;28;20162;-82
2024/04/06 14:33:10;;;;;;;3.08;1.10;;;;;;;;;;5026550;28;20032;-82
2024/04/06 14:35:35;;;;;;;2.05;0.80;;;;;;;;;;5034281;28;20426;-82
2024/04/06 14:38:02;;;;;;;2.42;0.70;;;;;;;;;;5051894;28;20059;-82